Marianne — VRFM5 — position and weather

sailwx.info

Track history (hours):
 
Tides and Currents Weather Stations Pressure Air Temp Water Temp Dewpoint Dewpoint Depression Visibility Wind Speed Wind Dir Waves Ship Positions

Marianne

Last reported at 2014-Oct-25 15:09 UTC. Time now 2014-Oct-25 17:27 UTC.
Position N 54°37' W 001°10'.

Length 97 m; draft 5.5 m.

Type: Ship (hazmat cat B). MMSI: 477560836.

Date/timePositionNaut miles runAvg speedWind from/ knotsBaromVisibWave heightAir tempDewpointWater temp
2014-Oct-25 15:09N 54°37' W 001°10'0 0.0
2014-Oct-25 14:27N 54°37' W 001°10'0 0.0
2014-Oct-25 12:24N 54°37' W 001°10'0 0.0
2014-Oct-25 08:18N 54°37' W 001°10'0 0.0
2014-Oct-25 07:18N 54°37' W 001°10'0 0.0
2014-Oct-24 16:29N 54°37' W 001°10'0 0.0
2014-Oct-24 14:23N 54°37' W 001°10'0 0.0
2014-Oct-24 12:23N 54°37' W 001°10'0 0.0
2014-Oct-24 11:08N 54°37' W 001°10'0 0.0
2014-Oct-24 06:29N 54°37' W 001°10'0 0.0
2014-Oct-23 18:12N 54°38' W 001°10'5 6.1
2014-Oct-23 17:28N 54°41' W 001°05'0 0.1
2014-Oct-23 16:31N 54°41' W 001°04'0 0.0
2014-Oct-23 15:04N 54°41' W 001°04'0 0.0
2014-Oct-23 14:19N 54°41' W 001°04'0 0.0
2014-Oct-23 13:31N 54°41' W 001°04'0 0.0
2014-Oct-23 12:22N 54°41' W 001°04'0 0.0
2014-Oct-23 11:22N 54°41' W 001°04'0 0.0
2014-Oct-23 10:25N 54°41' W 001°04'0 0.0
2014-Oct-23 09:25N 54°41' W 001°04'0 0.0
2014-Oct-23 08:22N 54°41' W 001°04'0 0.0
2014-Oct-23 07:28N 54°41' W 001°04'0 0.0
2014-Oct-23 06:28N 54°41' W 001°04'0 0.1
2014-Oct-23 05:21N 54°41' W 001°04'0 0.1
2014-Oct-23 04:31N 54°41' W 001°04'0 0.0
2014-Oct-23 03:31N 54°41' W 001°04'0 0.0
2014-Oct-23 02:31N 54°41' W 001°04'0 0.0
2014-Oct-23 01:31N 54°41' W 001°04'0 0.0
2014-Oct-23 00:31N 54°41' W 001°04'0 0.0
2014-Oct-22 23:31N 54°41' W 001°04'0 0.0
2014-Oct-22 22:31N 54°41' W 001°04'0 0.0
2014-Oct-22 21:31N 54°41' W 001°04'0 0.0
2014-Oct-22 20:31N 54°41' W 001°04'0 0.0
2014-Oct-22 19:31N 54°41' W 001°04'0 0.0
2014-Oct-22 18:31N 54°41' W 001°04'0 0.0
2014-Oct-22 17:32N 54°41' W 001°04'0 0.0
2014-Oct-22 16:32N 54°41' W 001°04'0 0.0
2014-Oct-22 15:33N 54°41' W 001°04'0 0.0
2014-Oct-22 14:32N 54°41' W 001°04'0 0.0
2014-Oct-22 13:32N 54°41' W 001°04'0 0.0
2014-Oct-22 12:33N 54°41' W 001°04'0 0.0
2014-Oct-22 11:32N 54°41' W 001°04'0 0.0
2014-Oct-22 10:33N 54°41' W 001°04'0 0.0
2014-Oct-22 09:33N 54°41' W 001°04'2 2.4
2014-Oct-22 08:33N 54°40' W 001°08'8 7.8
2014-Oct-22 07:33N 54°47' W 001°03'3 3.1
2014-Oct-22 06:33N 54°50' W 001°02'1 1.4
2014-Oct-22 05:32N 54°50' W 000°60'3 3.4
2014-Oct-22 04:33N 54°47' W 000°56'3 2.5
2014-Oct-22 03:31N 54°46' W 000°53'1 1.1
2014-Oct-22 02:33N 54°46' W 000°54'7 7.1
2014-Oct-22 01:33N 54°52' W 001°02'3 2.9
2014-Oct-22 00:33N 54°54' W 001°05'3 3.5
2014-Oct-21 23:33N 54°52' W 001°01'3 3.2
2014-Oct-21 22:33N 54°49' W 000°57'2 1.9
2014-Oct-21 21:34N 54°48' W 000°55'2 1.8
2014-Oct-21 20:32N 54°46' W 000°53'1 1.4
2014-Oct-21 19:32N 54°45' W 000°52'1 1.4
2014-Oct-21 18:32N 54°44' W 000°51'5 4.6
2014-Oct-21 17:33N 54°46' W 000°58'6 6.2
2014-Oct-21 16:33N 54°50' W 001°06'1413.7
2014-Oct-21 15:33N 55°03' W 001°09'134 9.5
2014-Oct-21 01:33N 57°16' W 001°32'1211.7
2014-Oct-21 00:33N 57°28' W 001°34'1211.9
2014-Oct-20 23:33N 57°39' W 001°42'1413.8
2014-Oct-20 22:33N 57°51' W 001°56'5814.1
2014-Oct-20 18:28N 58°38' W 002°57'1515.8
2014-Oct-20 17:33N 58°43' W 003°24'1515.3
2014-Oct-20 16:33N 58°43' W 003°53'1514.8
2014-Oct-20 15:33N 58°43' W 004°21'19612.3
2014-Oct-19 23:33N 55°45' W 006°57'1212.4
2014-Oct-19 22:33N 55°36' W 006°44'1313.2
2014-Oct-19 21:33N 55°28' W 006°24'1212.2
2014-Oct-19 20:33N 55°25' W 006°04'1111.3
2014-Oct-19 19:33N 55°16' W 005°51'1311.8
2014-Oct-19 18:29N 55°04' W 005°42'1212.4
2014-Oct-19 17:32N 54°53' W 005°36'1212.3
2014-Oct-19 16:33N 54°42' W 005°44'7 6.6
2014-Oct-19 15:26N 54°37' W 005°53'0 0.0
2014-Oct-18 21:18N 54°37' W 005°53'6 8.1
2014-Oct-18 20:33N 54°42' W 005°46'10 9.7
2014-Oct-18 19:33N 54°44' W 005°30'1111.1
2014-Oct-18 18:33N 54°35' W 005°17'1313.5
2014-Oct-18 17:33N 54°22' W 005°13'1513.9
2014-Oct-18 16:28N 54°07' W 005°14'10713.6
2014-Oct-18 08:33N 52°22' W 005°50'1413.8
2014-Oct-18 07:33N 52°09' W 005°59'1313.1
2014-Oct-18 06:33N 52°02' W 006°17'1313.5
2014-Oct-18 05:33N 51°58' W 006°38'1313.4
2014-Oct-18 04:33N 51°55' W 006°59'1313.1
2014-Oct-18 03:33N 51°51' W 007°19'1312.9
2014-Oct-18 02:33N 51°48' W 007°39'1312.6
2014-Oct-18 01:33N 51°44' W 007°59'1010.5
2014-Oct-18 00:34N 51°47' W 008°15'8 8.2
2014-Oct-17 23:33N 51°54' W 008°23'1 1.2
2014-Oct-17 22:31N 51°54' W 008°25'0 0.0
2014-Oct-17 21:31N 51°54' W 008°25'0 0.0
2014-Oct-17 20:31N 51°54' W 008°25'0 0.0
2014-Oct-17 19:31N 51°54' W 008°25'0 0.0
2014-Oct-17 18:31N 51°54' W 008°25'0 0.0
2014-Oct-17 17:31N 51°54' W 008°25'0 0.0
2014-Oct-17 16:31N 51°54' W 008°25'0 0.0
2014-Oct-17 15:31N 51°54' W 008°25'0 0.0
2014-Oct-17 14:31N 51°54' W 008°25'5 5.7
2014-Oct-17 13:33N 51°51' W 008°17'10 9.8
2014-Oct-17 12:33N 51°42' W 008°11'1313.1
2014-Oct-17 11:33N 51°33' W 007°55'1313.2
2014-Oct-17 10:33N 51°24' W 007°40'17710.9
2014-Oct-16 18:16N 49°58' W 003°36'913.1
2014-Oct-16 17:33N 49°58' W 003°21'1413.2
2014-Oct-16 16:28N 49°59' W 002°59'1212.6
2014-Oct-16 15:33N 50°02' W 002°41'12312.3
2014-Oct-16 05:33N 50°36' E 000°23'1212.3
2014-Oct-16 04:33N 50°40' E 000°41'1312.4
2014-Oct-16 03:33N 50°47' E 000°58'1412.4
2014-Oct-16 02:27N 50°57' E 001°13'1112.8
2014-Oct-16 01:33N 51°04' E 001°27'1414.2
2014-Oct-16 00:34N 51°13' E 001°44'1514.6
2014-Oct-15 23:34N 51°26' E 001°56'1413.7
2014-Oct-15 22:33N 51°38' E 002°05'1313.0
2014-Oct-15 21:32N 51°50' E 002°14'1612.4
2014-Oct-15 20:17N 52°06' E 002°15'2111.9
2014-Oct-15 18:32N 52°27' E 002°15'2412.3
2014-Oct-15 16:33N 52°51' E 002°10'1312.8
2014-Oct-15 15:33N 52°58' E 001°52'  
Track history (hours):
 
Tides and Currents Weather Stations Pressure Air Temp Water Temp Dewpoint Dewpoint Depression Visibility Wind Speed Wind Dir Waves Ship Positions

Marianne

Last reported at 2014-Oct-25 15:09 UTC. Time now 2014-Oct-25 17:27 UTC.
Position N 54°37' W 001°10'.

Length 97 m; draft 5.5 m.

Type: Ship (hazmat cat B). MMSI: 477560836.

Date/timePositionNaut miles runAvg speedWind from/ knotsBaromVisibWave heightAir tempDewpointWater temp
2014-Oct-25 15:09N 54°37' W 001°10'0 0.0
2014-Oct-25 14:27N 54°37' W 001°10'0 0.0
2014-Oct-25 12:24N 54°37' W 001°10'0 0.0
2014-Oct-25 08:18N 54°37' W 001°10'0 0.0
2014-Oct-25 07:18N 54°37' W 001°10'0 0.0
2014-Oct-24 16:29N 54°37' W 001°10'0 0.0
2014-Oct-24 14:23N 54°37' W 001°10'0 0.0
2014-Oct-24 12:23N 54°37' W 001°10'0 0.0
2014-Oct-24 11:08N 54°37' W 001°10'0 0.0
2014-Oct-24 06:29N 54°37' W 001°10'0 0.0
2014-Oct-23 18:12N 54°38' W 001°10'5 6.1
2014-Oct-23 17:28N 54°41' W 001°05'0 0.1
2014-Oct-23 16:31N 54°41' W 001°04'0 0.0
2014-Oct-23 15:04N 54°41' W 001°04'0 0.0
2014-Oct-23 14:19N 54°41' W 001°04'0 0.0
2014-Oct-23 13:31N 54°41' W 001°04'0 0.0
2014-Oct-23 12:22N 54°41' W 001°04'0 0.0
2014-Oct-23 11:22N 54°41' W 001°04'0 0.0
2014-Oct-23 10:25N 54°41' W 001°04'0 0.0
2014-Oct-23 09:25N 54°41' W 001°04'0 0.0
2014-Oct-23 08:22N 54°41' W 001°04'0 0.0
2014-Oct-23 07:28N 54°41' W 001°04'0 0.0
2014-Oct-23 06:28N 54°41' W 001°04'0 0.1
2014-Oct-23 05:21N 54°41' W 001°04'0 0.1
2014-Oct-23 04:31N 54°41' W 001°04'0 0.0
2014-Oct-23 03:31N 54°41' W 001°04'0 0.0
2014-Oct-23 02:31N 54°41' W 001°04'0 0.0
2014-Oct-23 01:31N 54°41' W 001°04'0 0.0
2014-Oct-23 00:31N 54°41' W 001°04'0 0.0
2014-Oct-22 23:31N 54°41' W 001°04'0 0.0
2014-Oct-22 22:31N 54°41' W 001°04'0 0.0
2014-Oct-22 21:31N 54°41' W 001°04'0 0.0
2014-Oct-22 20:31N 54°41' W 001°04'0 0.0
2014-Oct-22 19:31N 54°41' W 001°04'0 0.0
2014-Oct-22 18:31N 54°41' W 001°04'0 0.0
2014-Oct-22 17:32N 54°41' W 001°04'0 0.0
2014-Oct-22 16:32N 54°41' W 001°04'0 0.0
2014-Oct-22 15:33N 54°41' W 001°04'0 0.0
2014-Oct-22 14:32N 54°41' W 001°04'0 0.0
2014-Oct-22 13:32N 54°41' W 001°04'0 0.0
2014-Oct-22 12:33N 54°41' W 001°04'0 0.0
2014-Oct-22 11:32N 54°41' W 001°04'0 0.0
2014-Oct-22 10:33N 54°41' W 001°04'0 0.0
2014-Oct-22 09:33N 54°41' W 001°04'2 2.4
2014-Oct-22 08:33N 54°40' W 001°08'8 7.8
2014-Oct-22 07:33N 54°47' W 001°03'3 3.1
2014-Oct-22 06:33N 54°50' W 001°02'1 1.4
2014-Oct-22 05:32N 54°50' W 000°60'3 3.4
2014-Oct-22 04:33N 54°47' W 000°56'3 2.5
2014-Oct-22 03:31N 54°46' W 000°53'1 1.1
2014-Oct-22 02:33N 54°46' W 000°54'7 7.1
2014-Oct-22 01:33N 54°52' W 001°02'3 2.9
2014-Oct-22 00:33N 54°54' W 001°05'3 3.5
2014-Oct-21 23:33N 54°52' W 001°01'3 3.2
2014-Oct-21 22:33N 54°49' W 000°57'2 1.9
2014-Oct-21 21:34N 54°48' W 000°55'2 1.8
2014-Oct-21 20:32N 54°46' W 000°53'1 1.4
2014-Oct-21 19:32N 54°45' W 000°52'1 1.4
2014-Oct-21 18:32N 54°44' W 000°51'5 4.6
2014-Oct-21 17:33N 54°46' W 000°58'6 6.2
2014-Oct-21 16:33N 54°50' W 001°06'1413.7
2014-Oct-21 15:33N 55°03' W 001°09'134 9.5
2014-Oct-21 01:33N 57°16' W 001°32'1211.7
2014-Oct-21 00:33N 57°28' W 001°34'1211.9
2014-Oct-20 23:33N 57°39' W 001°42'1413.8
2014-Oct-20 22:33N 57°51' W 001°56'5814.1
2014-Oct-20 18:28N 58°38' W 002°57'1515.8
2014-Oct-20 17:33N 58°43' W 003°24'1515.3
2014-Oct-20 16:33N 58°43' W 003°53'1514.8
2014-Oct-20 15:33N 58°43' W 004°21'19612.3
2014-Oct-19 23:33N 55°45' W 006°57'1212.4
2014-Oct-19 22:33N 55°36' W 006°44'1313.2
2014-Oct-19 21:33N 55°28' W 006°24'1212.2
2014-Oct-19 20:33N 55°25' W 006°04'1111.3
2014-Oct-19 19:33N 55°16' W 005°51'1311.8
2014-Oct-19 18:29N 55°04' W 005°42'1212.4
2014-Oct-19 17:32N 54°53' W 005°36'1212.3
2014-Oct-19 16:33N 54°42' W 005°44'7 6.6
2014-Oct-19 15:26N 54°37' W 005°53'0 0.0
2014-Oct-18 21:18N 54°37' W 005°53'6 8.1
2014-Oct-18 20:33N 54°42' W 005°46'10 9.7
2014-Oct-18 19:33N 54°44' W 005°30'1111.1
2014-Oct-18 18:33N 54°35' W 005°17'1313.5
2014-Oct-18 17:33N 54°22' W 005°13'1513.9
2014-Oct-18 16:28N 54°07' W 005°14'10713.6
2014-Oct-18 08:33N 52°22' W 005°50'1413.8
2014-Oct-18 07:33N 52°09' W 005°59'1313.1
2014-Oct-18 06:33N 52°02' W 006°17'1313.5
2014-Oct-18 05:33N 51°58' W 006°38'1313.4
2014-Oct-18 04:33N 51°55' W 006°59'1313.1
2014-Oct-18 03:33N 51°51' W 007°19'1312.9
2014-Oct-18 02:33N 51°48' W 007°39'1312.6
2014-Oct-18 01:33N 51°44' W 007°59'1010.5
2014-Oct-18 00:34N 51°47' W 008°15'8 8.2
2014-Oct-17 23:33N 51°54' W 008°23'1 1.2
2014-Oct-17 22:31N 51°54' W 008°25'0 0.0
2014-Oct-17 21:31N 51°54' W 008°25'0 0.0
2014-Oct-17 20:31N 51°54' W 008°25'0 0.0
2014-Oct-17 19:31N 51°54' W 008°25'0 0.0
2014-Oct-17 18:31N 51°54' W 008°25'0 0.0
2014-Oct-17 17:31N 51°54' W 008°25'0 0.0
2014-Oct-17 16:31N 51°54' W 008°25'0 0.0
2014-Oct-17 15:31N 51°54' W 008°25'0 0.0
2014-Oct-17 14:31N 51°54' W 008°25'5 5.7
2014-Oct-17 13:33N 51°51' W 008°17'10 9.8
2014-Oct-17 12:33N 51°42' W 008°11'1313.1
2014-Oct-17 11:33N 51°33' W 007°55'1313.2
2014-Oct-17 10:33N 51°24' W 007°40'17710.9
2014-Oct-16 18:16N 49°58' W 003°36'913.1
2014-Oct-16 17:33N 49°58' W 003°21'1413.2
2014-Oct-16 16:28N 49°59' W 002°59'1212.6
2014-Oct-16 15:33N 50°02' W 002°41'12312.3
2014-Oct-16 05:33N 50°36' E 000°23'1212.3
2014-Oct-16 04:33N 50°40' E 000°41'1312.4
2014-Oct-16 03:33N 50°47' E 000°58'1412.4
2014-Oct-16 02:27N 50°57' E 001°13'1112.8
2014-Oct-16 01:33N 51°04' E 001°27'1414.2
2014-Oct-16 00:34N 51°13' E 001°44'1514.6
2014-Oct-15 23:34N 51°26' E 001°56'1413.7
2014-Oct-15 22:33N 51°38' E 002°05'1313.0
2014-Oct-15 21:32N 51°50' E 002°14'1612.4
2014-Oct-15 20:17N 52°06' E 002°15'2111.9
2014-Oct-15 18:32N 52°27' E 002°15'2412.3
2014-Oct-15 16:33N 52°51' E 002°10'1312.8
2014-Oct-15 15:33N 52°58' E 001°52'  

Dump ship's entire track history